sensor_id;sensor_type;location;lat;lon;timestamp;P1;durP1;ratioP1;P2;durP2;ratioP2
57071;SDS011;42956;51.366;11.298;2024-03-08T00:01:51;78.25;;;46.70;;
57071;SDS011;42956;51.366;11.298;2024-03-08T00:04:21;91.03;;;50.53;;
57071;SDS011;42956;51.366;11.298;2024-03-08T00:06:51;84.95;;;47.08;;
57071;SDS011;42956;51.366;11.298;2024-03-08T00:09:21;83.25;;;46.35;;
57071;SDS011;42956;51.366;11.298;2024-03-08T00:11:51;78.05;;;45.70;;
57071;SDS011;42956;51.366;11.298;2024-03-08T00:14:23;73.57;;;45.30;;
57071;SDS011;42956;51.366;11.298;2024-03-08T00:16:54;74.32;;;42.90;;
57071;SDS011;42956;51.366;11.298;2024-03-08T00:19:24;75.15;;;42.28;;
57071;SDS011;42956;51.366;11.298;2024-03-08T00:21:54;67.38;;;39.80;;
57071;SDS011;42956;51.366;11.298;2024-03-08T00:24:24;70.03;;;41.55;;
57071;SDS011;42956;51.366;11.298;2024-03-08T00:26:55;65.78;;;39.83;;
57071;SDS011;42956;51.366;11.298;2024-03-08T00:29:28;66.15;;;38.92;;
57071;SDS011;42956;51.366;11.298;2024-03-08T00:31:58;67.93;;;38.83;;
57071;SDS011;42956;51.366;11.298;2024-03-08T00:34:28;66.07;;;39.15;;
57071;SDS011;42956;51.366;11.298;2024-03-08T00:36:58;69.00;;;39.28;;
57071;SDS011;42956;51.366;11.298;2024-03-08T00:39:28;62.38;;;37.75;;
57071;SDS011;42956;51.366;11.298;2024-03-08T00:41:58;55.90;;;35.08;;
57071;SDS011;42956;51.366;11.298;2024-03-08T00:44:31;59.17;;;34.58;;
57071;SDS011;42956;51.366;11.298;2024-03-08T00:47:01;59.45;;;36.05;;
57071;SDS011;42956;51.366;11.298;2024-03-08T00:49:31;58.60;;;34.30;;
57071;SDS011;42956;51.366;11.298;2024-03-08T00:52:03;63.63;;;35.05;;
57071;SDS011;42956;51.366;11.298;2024-03-08T00:54:33;62.33;;;35.97;;
57071;SDS011;42956;51.366;11.298;2024-03-08T00:57:04;55.30;;;33.03;;
57071;SDS011;42956;51.366;11.298;2024-03-08T00:59:37;57.35;;;32.15;;
57071;SDS011;42956;51.366;11.298;2024-03-08T01:02:07;51.33;;;32.47;;
57071;SDS011;42956;51.366;11.298;2024-03-08T01:04:37;63.17;;;34.80;;
57071;SDS011;42956;51.366;11.298;2024-03-08T01:07:07;54.67;;;32.55;;
57071;SDS011;42956;51.366;11.298;2024-03-08T01:09:37;57.40;;;33.35;;
57071;SDS011;42956;51.366;11.298;2024-03-08T01:12:07;57.20;;;32.05;;
57071;SDS011;42956;51.366;11.298;2024-03-08T01:14:40;53.22;;;33.13;;
57071;SDS011;42956;51.366;11.298;2024-03-08T01:17:10;53.67;;;33.95;;
57071;SDS011;42956;51.366;11.298;2024-03-08T01:19:40;59.20;;;34.35;;
57071;SDS011;42956;51.366;11.298;2024-03-08T01:22:11;55.20;;;32.78;;
57071;SDS011;42956;51.366;11.298;2024-03-08T01:24:41;53.60;;;32.38;;
57071;SDS011;42956;51.366;11.298;2024-03-08T01:27:11;59.58;;;34.10;;
57071;SDS011;42956;51.366;11.298;2024-03-08T01:29:44;50.97;;;32.83;;
57071;SDS011;42956;51.366;11.298;2024-03-08T01:32:14;58.35;;;32.97;;
57071;SDS011;42956;51.366;11.298;2024-03-08T01:34:44;55.85;;;33.38;;
57071;SDS011;42956;51.366;11.298;2024-03-08T01:37:14;55.97;;;33.33;;
57071;SDS011;42956;51.366;11.298;2024-03-08T01:39:44;59.65;;;34.00;;
57071;SDS011;42956;51.366;11.298;2024-03-08T01:42:14;56.45;;;33.00;;
57071;SDS011;42956;51.366;11.298;2024-03-08T01:44:47;58.78;;;33.38;;
57071;SDS011;42956;51.366;11.298;2024-03-08T01:47:18;53.20;;;32.60;;
57071;SDS011;42956;51.366;11.298;2024-03-08T01:49:49;57.75;;;32.35;;
57071;SDS011;42956;51.366;11.298;2024-03-08T01:52:20;55.95;;;33.38;;
57071;SDS011;42956;51.366;11.298;2024-03-08T01:54:50;51.28;;;31.60;;
57071;SDS011;42956;51.366;11.298;2024-03-08T01:57:21;62.58;;;34.30;;
57071;SDS011;42956;51.366;11.298;2024-03-08T01:59:54;55.90;;;32.75;;
57071;SDS011;42956;51.366;11.298;2024-03-08T02:02:25;58.20;;;33.05;;
57071;SDS011;42956;51.366;11.298;2024-03-08T02:04:55;65.05;;;33.10;;
57071;SDS011;42956;51.366;11.298;2024-03-08T02:07:25;53.25;;;32.88;;
57071;SDS011;42956;51.366;11.298;2024-03-08T02:09:55;60.78;;;32.40;;
57071;SDS011;42956;51.366;11.298;2024-03-08T02:12:25;56.58;;;34.72;;
57071;SDS011;42956;51.366;11.298;2024-03-08T02:14:58;55.60;;;31.17;;
57071;SDS011;42956;51.366;11.298;2024-03-08T02:17:28;60.63;;;33.90;;
57071;SDS011;42956;51.366;11.298;2024-03-08T02:19:58;59.63;;;33.72;;
57071;SDS011;42956;51.366;11.298;2024-03-08T02:22:31;54.20;;;34.97;;
57071;SDS011;42956;51.366;11.298;2024-03-08T02:25:01;49.83;;;32.00;;
57071;SDS011;42956;51.366;11.298;2024-03-08T02:27:32;54.85;;;33.28;;
57071;SDS011;42956;51.366;11.298;2024-03-08T02:30:03;58.25;;;34.35;;
57071;SDS011;42956;51.366;11.298;2024-03-08T02:32:33;59.75;;;34.25;;
57071;SDS011;42956;51.366;11.298;2024-03-08T02:35:03;60.30;;;34.72;;
57071;SDS011;42956;51.366;11.298;2024-03-08T02:37:36;53.53;;;31.63;;
57071;SDS011;42956;51.366;11.298;2024-03-08T02:40:06;59.60;;;35.28;;
57071;SDS011;42956;51.366;11.298;2024-03-08T02:42:36;59.88;;;34.72;;
57071;SDS011;42956;51.366;11.298;2024-03-08T02:45:06;61.38;;;33.17;;
57071;SDS011;42956;51.366;11.298;2024-03-08T02:47:37;59.28;;;32.33;;
57071;SDS011;42956;51.366;11.298;2024-03-08T02:50:07;52.13;;;33.00;;
57071;SDS011;42956;51.366;11.298;2024-03-08T02:52:41;59.42;;;33.58;;
57071;SDS011;42956;51.366;11.298;2024-03-08T02:55:13;62.25;;;34.33;;
57071;SDS011;42956;51.366;11.298;2024-03-08T02:57:45;61.33;;;34.40;;
57071;SDS011;42956;51.366;11.298;2024-03-08T03:00:14;62.63;;;33.08;;
57071;SDS011;42956;51.366;11.298;2024-03-08T03:02:46;53.08;;;31.98;;
57071;SDS011;42956;51.366;11.298;2024-03-08T03:05:16;58.15;;;32.45;;
57071;SDS011;42956;51.366;11.298;2024-03-08T03:07:49;62.78;;;33.22;;
57071;SDS011;42956;51.366;11.298;2024-03-08T03:10:19;55.15;;;32.25;;
57071;SDS011;42956;51.366;11.298;2024-03-08T03:12:50;59.53;;;33.03;;
57071;SDS011;42956;51.366;11.298;2024-03-08T03:15:20;56.78;;;34.72;;
57071;SDS011;42956;51.366;11.298;2024-03-08T03:17:53;66.50;;;34.70;;
57071;SDS011;42956;51.366;11.298;2024-03-08T03:20:24;56.67;;;33.63;;
57071;SDS011;42956;51.366;11.298;2024-03-08T03:23:02;56.90;;;34.35;;
57071;SDS011;42956;51.366;11.298;2024-03-08T03:25:35;55.72;;;34.15;;
57071;SDS011;42956;51.366;11.298;2024-03-08T03:28:07;61.78;;;34.60;;
57071;SDS011;42956;51.366;11.298;2024-03-08T03:30:38;58.95;;;35.38;;
57071;SDS011;42956;51.366;11.298;2024-03-08T03:33:08;61.55;;;34.33;;
57071;SDS011;42956;51.366;11.298;2024-03-08T03:35:40;60.47;;;34.53;;
57071;SDS011;42956;51.366;11.298;2024-03-08T03:38:13;59.72;;;34.60;;
57071;SDS011;42956;51.366;11.298;2024-03-08T03:40:44;58.40;;;33.40;;
57071;SDS011;42956;51.366;11.298;2024-03-08T03:43:15;57.03;;;33.00;;
57071;SDS011;42956;51.366;11.298;2024-03-08T03:45:45;61.35;;;33.35;;
57071;SDS011;42956;51.366;11.298;2024-03-08T03:48:15;61.53;;;34.55;;
57071;SDS011;42956;51.366;11.298;2024-03-08T03:50:45;60.08;;;34.30;;
57071;SDS011;42956;51.366;11.298;2024-03-08T03:53:19;61.33;;;34.80;;
57071;SDS011;42956;51.366;11.298;2024-03-08T03:55:50;55.33;;;32.88;;
57071;SDS011;42956;51.366;11.298;2024-03-08T03:58:19;66.68;;;33.83;;
57071;SDS011;42956;51.366;11.298;2024-03-08T04:00:50;55.72;;;33.67;;
57071;SDS011;42956;51.366;11.298;2024-03-08T04:03:20;55.30;;;34.47;;
57071;SDS011;42956;51.366;11.298;2024-03-08T04:05:50;61.05;;;33.35;;
57071;SDS011;42956;51.366;11.298;2024-03-08T04:08:23;59.25;;;35.22;;
57071;SDS011;42956;51.366;11.298;2024-03-08T04:10:53;61.53;;;34.88;;
57071;SDS011;42956;51.366;11.298;2024-03-08T04:13:23;64.97;;;34.80;;
57071;SDS011;42956;51.366;11.298;2024-03-08T04:15:53;61.20;;;34.55;;
57071;SDS011;42956;51.366;11.298;2024-03-08T04:18:23;58.35;;;34.25;;
57071;SDS011;42956;51.366;11.298;2024-03-08T04:20:53;64.60;;;35.60;;
57071;SDS011;42956;51.366;11.298;2024-03-08T04:23:26;62.75;;;34.63;;
57071;SDS011;42956;51.366;11.298;2024-03-08T04:25:56;70.18;;;34.65;;
57071;SDS011;42956;51.366;11.298;2024-03-08T04:28:25;66.68;;;36.28;;
57071;SDS011;42956;51.366;11.298;2024-03-08T04:30:55;65.97;;;36.13;;
57071;SDS011;42956;51.366;11.298;2024-03-08T04:33:27;64.97;;;36.13;;
57071;SDS011;42956;51.366;11.298;2024-03-08T04:35:57;61.88;;;34.25;;
57071;SDS011;42956;51.366;11.298;2024-03-08T04:38:30;57.63;;;34.53;;
57071;SDS011;42956;51.366;11.298;2024-03-08T04:43:30;65.55;;;35.40;;
57071;SDS011;42956;51.366;11.298;2024-03-08T04:46:00;63.83;;;36.75;;
57071;SDS011;42956;51.366;11.298;2024-03-08T04:48:30;66.15;;;35.65;;
57071;SDS011;42956;51.366;11.298;2024-03-08T04:51:00;67.15;;;35.58;;
57071;SDS011;42956;51.366;11.298;2024-03-08T04:53:33;64.80;;;36.20;;
57071;SDS011;42956;51.366;11.298;2024-03-08T04:56:03;65.95;;;37.80;;
57071;SDS011;42956;51.366;11.298;2024-03-08T04:58:35;63.25;;;36.53;;
57071;SDS011;42956;51.366;11.298;2024-03-08T05:01:05;60.38;;;34.47;;
57071;SDS011;42956;51.366;11.298;2024-03-08T05:03:37;71.97;;;39.30;;
57071;SDS011;42956;51.366;11.298;2024-03-08T05:06:08;67.32;;;35.40;;
57071;SDS011;42956;51.366;11.298;2024-03-08T05:08:40;66.47;;;35.92;;
57071;SDS011;42956;51.366;11.298;2024-03-08T05:11:10;62.20;;;36.03;;
57071;SDS011;42956;51.366;11.298;2024-03-08T05:13:41;65.30;;;35.25;;
57071;SDS011;42956;51.366;11.298;2024-03-08T05:16:12;63.33;;;34.50;;
57071;SDS011;42956;51.366;11.298;2024-03-08T05:18:42;63.88;;;35.83;;
57071;SDS011;42956;51.366;11.298;2024-03-08T05:21:14;62.70;;;33.60;;
57071;SDS011;42956;51.366;11.298;2024-03-08T05:23:50;61.17;;;33.03;;
57071;SDS011;42956;51.366;11.298;2024-03-08T05:26:20;61.78;;;35.60;;
57071;SDS011;42956;51.366;11.298;2024-03-08T05:28:50;59.53;;;34.28;;
57071;SDS011;42956;51.366;11.298;2024-03-08T05:31:20;68.93;;;37.65;;
57071;SDS011;42956;51.366;11.298;2024-03-08T05:33:51;69.00;;;39.58;;
57071;SDS011;42956;51.366;11.298;2024-03-08T05:36:22;69.15;;;37.83;;
57071;SDS011;42956;51.366;11.298;2024-03-08T05:38:55;65.38;;;37.47;;
57071;SDS011;42956;51.366;11.298;2024-03-08T05:41:25;67.10;;;36.47;;
57071;SDS011;42956;51.366;11.298;2024-03-08T05:43:55;65.68;;;38.45;;
57071;SDS011;42956;51.366;11.298;2024-03-08T05:46:25;65.75;;;36.17;;
57071;SDS011;42956;51.366;11.298;2024-03-08T05:48:55;66.70;;;35.70;;
57071;SDS011;42956;51.366;11.298;2024-03-08T05:51:25;69.78;;;37.05;;
57071;SDS011;42956;51.366;11.298;2024-03-08T05:53:58;69.57;;;39.67;;
57071;SDS011;42956;51.366;11.298;2024-03-08T05:56:29;82.07;;;46.45;;
57071;SDS011;42956;51.366;11.298;2024-03-08T05:58:59;78.70;;;48.83;;
57071;SDS011;42956;51.366;11.298;2024-03-08T06:01:29;73.53;;;41.83;;
57071;SDS011;42956;51.366;11.298;2024-03-08T06:04:03;75.45;;;41.33;;
57071;SDS011;42956;51.366;11.298;2024-03-08T06:06:34;71.55;;;40.10;;
57071;SDS011;42956;51.366;11.298;2024-03-08T06:09:07;74.18;;;38.30;;
57071;SDS011;42956;51.366;11.298;2024-03-08T06:11:39;69.75;;;39.33;;
57071;SDS011;42956;51.366;11.298;2024-03-08T06:14:10;71.25;;;41.95;;
57071;SDS011;42956;51.366;11.298;2024-03-08T06:16:40;70.70;;;39.65;;
57071;SDS011;42956;51.366;11.298;2024-03-08T06:19:09;68.72;;;38.92;;
57071;SDS011;42956;51.366;11.298;2024-03-08T06:21:39;74.50;;;40.15;;
57071;SDS011;42956;51.366;11.298;2024-03-08T06:24:11;71.07;;;39.40;;
57071;SDS011;42956;51.366;11.298;2024-03-08T06:26:42;66.82;;;37.85;;
57071;SDS011;42956;51.366;11.298;2024-03-08T06:29:12;69.85;;;38.72;;
57071;SDS011;42956;51.366;11.298;2024-03-08T06:31:42;64.03;;;37.63;;
57071;SDS011;42956;51.366;11.298;2024-03-08T06:34:12;60.85;;;35.88;;
57071;SDS011;42956;51.366;11.298;2024-03-08T06:36:42;69.65;;;39.70;;
57071;SDS011;42956;51.366;11.298;2024-03-08T06:39:14;64.65;;;35.95;;
57071;SDS011;42956;51.366;11.298;2024-03-08T06:41:44;76.57;;;40.67;;
57071;SDS011;42956;51.366;11.298;2024-03-08T06:44:14;75.80;;;42.00;;
57071;SDS011;42956;51.366;11.298;2024-03-08T06:46:44;77.95;;;43.78;;
57071;SDS011;42956;51.366;11.298;2024-03-08T06:49:15;76.32;;;43.13;;
57071;SDS011;42956;51.366;11.298;2024-03-08T06:51:44;73.80;;;43.70;;
57071;SDS011;42956;51.366;11.298;2024-03-08T06:54:17;73.30;;;44.40;;
57071;SDS011;42956;51.366;11.298;2024-03-08T06:56:47;64.60;;;38.17;;
57071;SDS011;42956;51.366;11.298;2024-03-08T06:59:17;67.68;;;37.17;;
57071;SDS011;42956;51.366;11.298;2024-03-08T07:01:48;63.80;;;37.35;;
57071;SDS011;42956;51.366;11.298;2024-03-08T07:04:21;72.95;;;39.30;;
57071;SDS011;42956;51.366;11.298;2024-03-08T07:06:56;66.38;;;37.53;;
57071;SDS011;42956;51.366;11.298;2024-03-08T07:09:28;70.60;;;36.78;;
57071;SDS011;42956;51.366;11.298;2024-03-08T07:11:59;63.28;;;36.15;;
57071;SDS011;42956;51.366;11.298;2024-03-08T07:14:29;56.63;;;34.17;;
57071;SDS011;42956;51.366;11.298;2024-03-08T07:16:59;60.75;;;34.70;;
57071;SDS011;42956;51.366;11.298;2024-03-08T07:19:33;67.50;;;39.70;;
57071;SDS011;42956;51.366;11.298;2024-03-08T07:22:04;63.50;;;38.33;;
57071;SDS011;42956;51.366;11.298;2024-03-08T07:24:38;64.22;;;35.72;;
57071;SDS011;42956;51.366;11.298;2024-03-08T07:27:23;62.47;;;37.42;;
57071;SDS011;42956;51.366;11.298;2024-03-08T07:29:52;60.17;;;36.22;;
57071;SDS011;42956;51.366;11.298;2024-03-08T07:32:26;55.30;;;35.58;;
57071;SDS011;42956;51.366;11.298;2024-03-08T07:34:57;66.82;;;38.47;;
57071;SDS011;42956;51.366;11.298;2024-03-08T07:37:26;65.80;;;36.17;;
57071;SDS011;42956;51.366;11.298;2024-03-08T07:39:59;63.30;;;36.25;;
57071;SDS011;42956;51.366;11.298;2024-03-08T07:42:29;62.78;;;37.03;;
57071;SDS011;42956;51.366;11.298;2024-03-08T07:44:58;63.05;;;36.35;;
57071;SDS011;42956;51.366;11.298;2024-03-08T07:47:29;74.82;;;38.85;;
57071;SDS011;42956;51.366;11.298;2024-03-08T07:50:00;58.95;;;36.80;;
57071;SDS011;42956;51.366;11.298;2024-03-08T07:52:31;61.58;;;37.30;;
57071;SDS011;42956;51.366;11.298;2024-03-08T07:55:03;64.70;;;36.92;;
57071;SDS011;42956;51.366;11.298;2024-03-08T07:57:33;63.88;;;38.10;;
57071;SDS011;42956;51.366;11.298;2024-03-08T08:00:05;65.03;;;37.90;;
57071;SDS011;42956;51.366;11.298;2024-03-08T08:05:08;59.53;;;36.58;;
57071;SDS011;42956;51.366;11.298;2024-03-08T08:07:38;60.70;;;37.58;;
57071;SDS011;42956;51.366;11.298;2024-03-08T08:10:13;65.03;;;38.90;;
57071;SDS011;42956;51.366;11.298;2024-03-08T08:12:45;61.00;;;37.28;;
57071;SDS011;42956;51.366;11.298;2024-03-08T08:15:15;60.33;;;38.25;;
57071;SDS011;42956;51.366;11.298;2024-03-08T08:17:46;62.50;;;37.80;;
57071;SDS011;42956;51.366;11.298;2024-03-08T08:20:16;60.30;;;38.88;;
57071;SDS011;42956;51.366;11.298;2024-03-08T08:22:46;66.07;;;38.72;;
57071;SDS011;42956;51.366;11.298;2024-03-08T08:25:18;63.72;;;38.63;;
57071;SDS011;42956;51.366;11.298;2024-03-08T08:27:51;63.08;;;37.83;;
57071;SDS011;42956;51.366;11.298;2024-03-08T08:30:22;62.67;;;39.28;;
57071;SDS011;42956;51.366;11.298;2024-03-08T08:32:52;66.13;;;39.80;;
57071;SDS011;42956;51.366;11.298;2024-03-08T08:35:22;66.60;;;39.95;;
57071;SDS011;42956;51.366;11.298;2024-03-08T08:37:52;64.40;;;39.88;;
57071;SDS011;42956;51.366;11.298;2024-03-08T08:40:24;64.00;;;40.45;;
57071;SDS011;42956;51.366;11.298;2024-03-08T08:42:56;62.33;;;38.15;;
57071;SDS011;42956;51.366;11.298;2024-03-08T08:45:26;64.03;;;39.30;;
57071;SDS011;42956;51.366;11.298;2024-03-08T08:47:57;69.35;;;39.05;;
57071;SDS011;42956;51.366;11.298;2024-03-08T08:50:29;63.92;;;38.97;;
57071;SDS011;42956;51.366;11.298;2024-03-08T08:52:59;62.40;;;38.58;;
57071;SDS011;42956;51.366;11.298;2024-03-08T08:55:33;58.97;;;38.67;;
57071;SDS011;42956;51.366;11.298;2024-03-08T08:58:03;62.03;;;39.47;;
57071;SDS011;42956;51.366;11.298;2024-03-08T09:00:34;58.00;;;37.15;;
57071;SDS011;42956;51.366;11.298;2024-03-08T09:03:04;63.00;;;40.03;;
57071;SDS011;42956;51.366;11.298;2024-03-08T09:05:34;63.28;;;38.38;;
57071;SDS011;42956;51.366;11.298;2024-03-08T09:08:06;58.42;;;37.85;;
57071;SDS011;42956;51.366;11.298;2024-03-08T09:10:38;61.72;;;38.28;;
57071;SDS011;42956;51.366;11.298;2024-03-08T09:13:10;55.97;;;37.15;;
57071;SDS011;42956;51.366;11.298;2024-03-08T09:15:53;62.72;;;37.28;;
57071;SDS011;42956;51.366;11.298;2024-03-08T09:18:23;58.10;;;37.35;;
57071;SDS011;42956;51.366;11.298;2024-03-08T09:20:53;61.50;;;36.65;;
57071;SDS011;42956;51.366;11.298;2024-03-08T09:23:23;51.40;;;36.17;;
57071;SDS011;42956;51.366;11.298;2024-03-08T09:25:59;56.53;;;35.85;;
57071;SDS011;42956;51.366;11.298;2024-03-08T09:28:36;59.20;;;39.38;;
57071;SDS011;42956;51.366;11.298;2024-03-08T09:31:08;56.10;;;34.60;;
57071;SDS011;42956;51.366;11.298;2024-03-08T09:33:38;55.47;;;35.13;;
57071;SDS011;42956;51.366;11.298;2024-03-08T09:36:08;57.70;;;37.10;;
57071;SDS011;42956;51.366;11.298;2024-03-08T09:38:39;55.88;;;36.80;;
57071;SDS011;42956;51.366;11.298;2024-03-08T09:41:12;62.90;;;38.90;;
57071;SDS011;42956;51.366;11.298;2024-03-08T09:43:42;57.08;;;36.05;;
57071;SDS011;42956;51.366;11.298;2024-03-08T09:46:12;62.25;;;37.53;;
57071;SDS011;42956;51.366;11.298;2024-03-08T09:48:43;58.25;;;37.00;;
57071;SDS011;42956;51.366;11.298;2024-03-08T09:51:13;55.20;;;35.30;;
57071;SDS011;42956;51.366;11.298;2024-03-08T09:53:43;65.38;;;37.30;;
57071;SDS011;42956;51.366;11.298;2024-03-08T09:56:16;57.95;;;36.33;;
57071;SDS011;42956;51.366;11.298;2024-03-08T09:58:48;57.15;;;35.88;;
57071;SDS011;42956;51.366;11.298;2024-03-08T10:01:41;57.85;;;37.50;;
57071;SDS011;42956;51.366;11.298;2024-03-08T10:04:11;55.05;;;37.38;;
57071;SDS011;42956;51.366;11.298;2024-03-08T10:06:41;54.88;;;35.42;;
57071;SDS011;42956;51.366;11.298;2024-03-08T10:09:11;53.40;;;34.25;;
57071;SDS011;42956;51.366;11.298;2024-03-08T10:11:44;56.13;;;37.10;;
57071;SDS011;42956;51.366;11.298;2024-03-08T10:14:14;59.63;;;38.10;;
57071;SDS011;42956;51.366;11.298;2024-03-08T10:16:45;56.33;;;35.25;;
57071;SDS011;42956;51.366;11.298;2024-03-08T10:19:16;63.25;;;37.30;;
57071;SDS011;42956;51.366;11.298;2024-03-08T10:21:49;60.85;;;37.67;;
57071;SDS011;42956;51.366;11.298;2024-03-08T10:24:20;60.10;;;36.65;;
57071;SDS011;42956;51.366;11.298;2024-03-08T10:26:56;55.15;;;35.20;;
57071;SDS011;42956;51.366;11.298;2024-03-08T10:29:27;57.00;;;35.88;;
57071;SDS011;42956;51.366;11.298;2024-03-08T10:31:57;56.97;;;37.15;;
57071;SDS011;42956;51.366;11.298;2024-03-08T10:34:27;51.72;;;33.70;;
57071;SDS011;42956;51.366;11.298;2024-03-08T10:36:58;47.90;;;32.97;;
57071;SDS011;42956;51.366;11.298;2024-03-08T10:39:32;61.38;;;37.20;;
57071;SDS011;42956;51.366;11.298;2024-03-08T10:42:06;58.42;;;37.17;;
57071;SDS011;42956;51.366;11.298;2024-03-08T10:44:44;59.33;;;36.58;;
57071;SDS011;42956;51.366;11.298;2024-03-08T10:47:24;57.50;;;37.13;;
57071;SDS011;42956;51.366;11.298;2024-03-08T10:49:59;55.78;;;36.35;;
57071;SDS011;42956;51.366;11.298;2024-03-08T10:52:31;52.30;;;35.42;;
57071;SDS011;42956;51.366;11.298;2024-03-08T10:55:01;53.53;;;35.17;;
57071;SDS011;42956;51.366;11.298;2024-03-08T10:57:42;50.33;;;34.30;;
57071;SDS011;42956;51.366;11.298;2024-03-08T11:00:12;57.22;;;37.55;;
57071;SDS011;42956;51.366;11.298;2024-03-08T11:02:43;54.10;;;36.47;;
57071;SDS011;42956;51.366;11.298;2024-03-08T11:05:15;60.17;;;36.85;;
57071;SDS011;42956;51.366;11.298;2024-03-08T11:08:02;61.33;;;36.53;;
57071;SDS011;42956;51.366;11.298;2024-03-08T11:10:34;50.63;;;34.17;;
57071;SDS011;42956;51.366;11.298;2024-03-08T11:13:06;52.10;;;35.28;;
57071;SDS011;42956;51.366;11.298;2024-03-08T11:15:56;52.60;;;34.22;;
57071;SDS011;42956;51.366;11.298;2024-03-08T11:18:27;52.10;;;34.78;;
57071;SDS011;42956;51.366;11.298;2024-03-08T11:20:56;52.25;;;33.95;;
57071;SDS011;42956;51.366;11.298;2024-03-08T11:23:26;55.45;;;34.47;;
57071;SDS011;42956;51.366;11.298;2024-03-08T11:25:58;55.03;;;34.67;;
57071;SDS011;42956;51.366;11.298;2024-03-08T11:28:30;50.97;;;34.65;;
57071;SDS011;42956;51.366;11.298;2024-03-08T11:33:45;50.30;;;33.13;;
57071;SDS011;42956;51.366;11.298;2024-03-08T11:36:20;55.33;;;34.03;;
57071;SDS011;42956;51.366;11.298;2024-03-08T11:38:51;53.33;;;35.03;;
57071;SDS011;42956;51.366;11.298;2024-03-08T11:41:23;51.67;;;35.78;;
57071;SDS011;42956;51.366;11.298;2024-03-08T11:44:05;55.63;;;35.95;;
57071;SDS011;42956;51.366;11.298;2024-03-08T11:46:37;55.58;;;34.63;;
57071;SDS011;42956;51.366;11.298;2024-03-08T11:49:13;54.05;;;35.13;;
57071;SDS011;42956;51.366;11.298;2024-03-08T11:51:44;53.72;;;37.00;;
57071;SDS011;42956;51.366;11.298;2024-03-08T11:54:14;53.47;;;34.35;;
57071;SDS011;42956;51.366;11.298;2024-03-08T11:56:44;53.50;;;33.63;;
57071;SDS011;42956;51.366;11.298;2024-03-08T11:59:18;52.10;;;34.45;;
57071;SDS011;42956;51.366;11.298;2024-03-08T12:02:01;47.72;;;34.03;;
57071;SDS011;42956;51.366;11.298;2024-03-08T12:04:32;48.58;;;32.13;;
57071;SDS011;42956;51.366;11.298;2024-03-08T12:07:03;52.53;;;32.88;;
57071;SDS011;42956;51.366;11.298;2024-03-08T12:09:36;49.17;;;33.55;;
57071;SDS011;42956;51.366;11.298;2024-03-08T12:12:06;50.60;;;33.10;;
57071;SDS011;42956;51.366;11.298;2024-03-08T12:14:41;54.67;;;34.47;;
57071;SDS011;42956;51.366;11.298;2024-03-08T12:17:12;51.20;;;32.00;;
57071;SDS011;42956;51.366;11.298;2024-03-08T12:19:45;52.80;;;33.40;;
57071;SDS011;42956;51.366;11.298;2024-03-08T12:22:16;48.17;;;33.78;;
57071;SDS011;42956;51.366;11.298;2024-03-08T12:27:32;46.78;;;32.15;;
57071;SDS011;42956;51.366;11.298;2024-03-08T12:32:51;50.60;;;33.42;;
57071;SDS011;42956;51.366;11.298;2024-03-08T12:35:24;51.78;;;32.45;;
57071;SDS011;42956;51.366;11.298;2024-03-08T12:37:55;46.13;;;33.30;;
57071;SDS011;42956;51.366;11.298;2024-03-08T12:40:25;49.72;;;33.80;;
57071;SDS011;42956;51.366;11.298;2024-03-08T12:42:56;49.55;;;33.88;;
57071;SDS011;42956;51.366;11.298;2024-03-08T12:45:27;51.25;;;34.35;;
57071;SDS011;42956;51.366;11.298;2024-03-08T12:48:00;46.92;;;30.40;;
57071;SDS011;42956;51.366;11.298;2024-03-08T12:50:30;45.75;;;32.22;;
57071;SDS011;42956;51.366;11.298;2024-03-08T12:53:00;49.08;;;30.63;;
57071;SDS011;42956;51.366;11.298;2024-03-08T12:55:34;50.58;;;33.97;;
57071;SDS011;42956;51.366;11.298;2024-03-08T12:58:05;47.75;;;33.15;;
57071;SDS011;42956;51.366;11.298;2024-03-08T13:00:35;46.42;;;30.65;;
57071;SDS011;42956;51.366;11.298;2024-03-08T13:03:12;46.20;;;31.70;;
57071;SDS011;42956;51.366;11.298;2024-03-08T13:05:42;47.30;;;30.38;;
57071;SDS011;42956;51.366;11.298;2024-03-08T13:08:12;47.80;;;31.08;;
57071;SDS011;42956;51.366;11.298;2024-03-08T13:10:43;44.95;;;32.53;;
57071;SDS011;42956;51.366;11.298;2024-03-08T13:13:13;46.78;;;32.25;;
57071;SDS011;42956;51.366;11.298;2024-03-08T13:15:44;47.85;;;32.10;;
57071;SDS011;42956;51.366;11.298;2024-03-08T13:18:18;47.58;;;32.20;;
57071;SDS011;42956;51.366;11.298;2024-03-08T13:20:48;42.10;;;30.25;;
57071;SDS011;42956;51.366;11.298;2024-03-08T13:23:19;46.28;;;30.83;;
57071;SDS011;42956;51.366;11.298;2024-03-08T13:25:49;44.85;;;31.60;;
57071;SDS011;42956;51.366;11.298;2024-03-08T13:28:19;46.70;;;30.63;;
57071;SDS011;42956;51.366;11.298;2024-03-08T13:30:54;46.00;;;31.35;;
57071;SDS011;42956;51.366;11.298;2024-03-08T13:33:32;47.67;;;33.42;;
57071;SDS011;42956;51.366;11.298;2024-03-08T13:36:04;47.78;;;33.03;;
57071;SDS011;42956;51.366;11.298;2024-03-08T13:38:42;47.45;;;31.10;;
57071;SDS011;42956;51.366;11.298;2024-03-08T13:41:13;44.50;;;31.88;;
57071;SDS011;42956;51.366;11.298;2024-03-08T13:43:45;56.22;;;34.88;;
57071;SDS011;42956;51.366;11.298;2024-03-08T13:46:16;51.42;;;33.40;;
57071;SDS011;42956;51.366;11.298;2024-03-08T13:48:49;43.13;;;31.73;;
57071;SDS011;42956;51.366;11.298;2024-03-08T13:51:20;50.72;;;33.50;;
57071;SDS011;42956;51.366;11.298;2024-03-08T13:53:53;44.13;;;31.30;;
57071;SDS011;42956;51.366;11.298;2024-03-08T13:56:23;46.20;;;31.92;;
57071;SDS011;42956;51.366;11.298;2024-03-08T13:58:53;47.85;;;31.30;;
57071;SDS011;42956;51.366;11.298;2024-03-08T14:01:24;50.38;;;33.28;;
57071;SDS011;42956;51.366;11.298;2024-03-08T14:03:57;43.28;;;32.47;;
57071;SDS011;42956;51.366;11.298;2024-03-08T14:06:27;52.42;;;32.53;;
57071;SDS011;42956;51.366;11.298;2024-03-08T14:08:57;55.08;;;35.75;;
57071;SDS011;42956;51.366;11.298;2024-03-08T14:11:26;53.65;;;34.80;;
57071;SDS011;42956;51.366;11.298;2024-03-08T14:13:56;44.97;;;31.80;;
57071;SDS011;42956;51.366;11.298;2024-03-08T14:16:26;56.75;;;34.65;;
57071;SDS011;42956;51.366;11.298;2024-03-08T14:18:59;53.08;;;33.35;;
57071;SDS011;42956;51.366;11.298;2024-03-08T14:21:32;48.25;;;33.95;;
57071;SDS011;42956;51.366;11.298;2024-03-08T14:24:04;52.67;;;35.45;;
57071;SDS011;42956;51.366;11.298;2024-03-08T14:26:34;48.70;;;32.72;;
57071;SDS011;42956;51.366;11.298;2024-03-08T14:29:05;48.00;;;33.45;;
57071;SDS011;42956;51.366;11.298;2024-03-08T14:31:36;52.60;;;33.20;;
57071;SDS011;42956;51.366;11.298;2024-03-08T14:34:11;50.45;;;34.55;;
57071;SDS011;42956;51.366;11.298;2024-03-08T14:36:41;51.25;;;33.25;;
57071;SDS011;42956;51.366;11.298;2024-03-08T14:39:11;52.17;;;31.38;;
57071;SDS011;42956;51.366;11.298;2024-03-08T14:41:41;47.08;;;32.40;;
57071;SDS011;42956;51.366;11.298;2024-03-08T14:44:11;47.65;;;30.60;;
57071;SDS011;42956;51.366;11.298;2024-03-08T14:46:41;50.88;;;32.50;;